Clackamas, OR (97015)

9:55 AM PDT on August 30, 2015 (GMT -0700)
Southern Ridge Neighborhood | | Change Station
CLOSE
Current Station
Personal Weather Station
Location: Happy Valley, OR
Elevation: 640 ft
Nearby Weather Stations

Elev 640 ft 45.43 °N, 122.51 °W | Updated 9 seconds ago

Rain
Rain
58.3 °F
Feels Like 58.3 °F
N
3.6
Wind Variable Wind from West
Gusts 4.9 mph

Today
High -- | Low -- °F
--% Chance of Precip.
Yesterday
High -- | Low -- °F
Precip. -- in
6:28 AM 7:51 PM
Full, 99% visible
Pressure 29.97 in
Visibility 10.0 miles
Clouds Scattered Clouds 1500 ft
Mostly Cloudy 1900 ft
Overcast 8000 ft
Dew Point 58 °F
Humidity 99%
Rainfall 0.87 in
Snow Depth Not available.
UV 1.0 out of 12
Pollen .50 out of 12
Air Quality Not available.
Flu Activity Not available.
SPECI KTTD 301631Z VRB06KT 10SM SCT015 BKN019 OVC080 16/13 A2997 RMK AO2 RAE18 P0006 T01560133
Pressure 29.97 in
Visibility 10.0 miles
Clouds Scattered Clouds 1500 ft
Mostly Cloudy 1900 ft
Overcast 8000 ft
Dew Point 58 °F
Humidity 99%
Rainfall 0.87 in
Snow Depth Not available.
UV 1.0 out of 12
Pollen .50 out of 12
Air Quality Not available.
Flu Activity Not available.
SPECI KTTD 301631Z VRB06KT 10SM SCT015 BKN019 OVC080 16/13 A2997 RMK AO2 RAE18 P0006 T01560133

10-Day Weather Forecast

×

Almanac

Astronomy

Aug. 30, 2015 Rise Set
Actual Time
Civil Twilight
Nautical Twilight
Astronomical Twilight
Moon
Length of Visible Light
Length of Day
Tomorrow will be .
, % of the Moon is Illuminated

Today's Extremes

State Highs State Lows

Community

WunderPhotos

Upload Photos

1,851,008 photos uploaded!

WunderBlogs® & News

Nearby

Air Quality

  Air Quality AQ Index Pollutant
Not available.

Snow Depth

Station Depth Elevation

Earthquake Activity

City Distance Mag. Time & Date
Minimum magnitude displayed is 2.5.

Coastal Water Temperatures

Place Temperature

Stations

Nearby Weather Stations

Station Location Temp. Windchill Dew Point Humidity Wind Precip. Elev Updated Type